sensor_id;sensor_type;location;lat;lon;timestamp;temperature;humidity
1181;DHT22;579;52.046;8.532;2022-12-10T00:00:34;1.70;1.00
1181;DHT22;579;52.046;8.532;2022-12-10T00:03:01;1.70;1.00
1181;DHT22;579;52.046;8.532;2022-12-10T00:08:22;1.90;1.00
1181;DHT22;579;52.046;8.532;2022-12-10T00:10:49;1.90;1.00
1181;DHT22;579;52.046;8.532;2022-12-10T00:13:15;2.00;1.00
1181;DHT22;579;52.046;8.532;2022-12-10T00:15:41;2.00;1.00
1181;DHT22;579;52.046;8.532;2022-12-10T00:18:07;1.90;1.00
1181;DHT22;579;52.046;8.532;2022-12-10T00:20:35;1.90;1.00
1181;DHT22;579;52.046;8.532;2022-12-10T00:23:01;1.90;1.00
1181;DHT22;579;52.046;8.532;2022-12-10T00:31:32;1.90;1.00
1181;DHT22;579;52.046;8.532;2022-12-10T00:34:02;2.00;1.00
1181;DHT22;579;52.046;8.532;2022-12-10T00:36:31;2.00;1.00
1181;DHT22;579;52.046;8.532;2022-12-10T00:38:59;2.00;1.00
1181;DHT22;579;52.046;8.532;2022-12-10T00:41:26;2.10;1.00
1181;DHT22;579;52.046;8.532;2022-12-10T00:43:52;2.00;1.00
1181;DHT22;579;52.046;8.532;2022-12-10T00:46:19;2.00;1.00
1181;DHT22;579;52.046;8.532;2022-12-10T00:53:50;2.10;1.00
1181;DHT22;579;52.046;8.532;2022-12-10T00:56:20;2.40;1.00
1181;DHT22;579;52.046;8.532;2022-12-10T00:58:49;2.20;1.00
1181;DHT22;579;52.046;8.532;2022-12-10T01:01:18;2.20;1.00
1181;DHT22;579;52.046;8.532;2022-12-10T01:03:47;2.20;1.00
1181;DHT22;579;52.046;8.532;2022-12-10T01:06:16;2.30;1.00
1181;DHT22;579;52.046;8.532;2022-12-10T01:08:44;2.20;1.00
1181;DHT22;579;52.046;8.532;2022-12-10T01:17:50;2.50;1.00
1181;DHT22;579;52.046;8.532;2022-12-10T01:20:16;2.40;1.00
1181;DHT22;579;52.046;8.532;2022-12-10T01:22:43;2.40;1.00
1181;DHT22;579;52.046;8.532;2022-12-10T01:25:09;2.40;1.00
1181;DHT22;579;52.046;8.532;2022-12-10T01:27:35;2.60;1.00
1181;DHT22;579;52.046;8.532;2022-12-10T01:30:01;2.80;1.00
1181;DHT22;579;52.046;8.532;2022-12-10T01:32:28;2.60;1.00
1181;DHT22;579;52.046;8.532;2022-12-10T01:39:59;2.50;1.00
1181;DHT22;579;52.046;8.532;2022-12-10T01:42:25;2.50;1.00
1181;DHT22;579;52.046;8.532;2022-12-10T01:45:02;2.40;1.00
1181;DHT22;579;52.046;8.532;2022-12-10T01:47:32;2.40;1.00
1181;DHT22;579;52.046;8.532;2022-12-10T01:49:58;2.40;1.00
1181;DHT22;579;52.046;8.532;2022-12-10T01:52:26;2.60;1.00
1181;DHT22;579;52.046;8.532;2022-12-10T01:54:53;2.50;1.00
1181;DHT22;579;52.046;8.532;2022-12-10T02:00:00;2.50;1.00
1181;DHT22;579;52.046;8.532;2022-12-10T02:02:38;2.50;1.00
1181;DHT22;579;52.046;8.532;2022-12-10T02:05:19;2.50;1.00
1181;DHT22;579;52.046;8.532;2022-12-10T02:07:55;2.70;1.00
1181;DHT22;579;52.046;8.532;2022-12-10T02:10:40;2.70;1.00
1181;DHT22;579;52.046;8.532;2022-12-10T02:13:12;2.60;1.00
1181;DHT22;579;52.046;8.532;2022-12-10T02:22:57;2.80;1.00
1181;DHT22;579;52.046;8.532;2022-12-10T02:25:31;2.70;1.00
1181;DHT22;579;52.046;8.532;2022-12-10T02:28:05;2.70;1.00
1181;DHT22;579;52.046;8.532;2022-12-10T02:30:37;2.70;1.00
1181;DHT22;579;52.046;8.532;2022-12-10T02:33:05;2.80;1.00
1181;DHT22;579;52.046;8.532;2022-12-10T02:35:34;2.80;1.00
1181;DHT22;579;52.046;8.532;2022-12-10T02:38:07;2.70;1.00
1181;DHT22;579;52.046;8.532;2022-12-10T02:45:43;2.90;1.00
1181;DHT22;579;52.046;8.532;2022-12-10T02:48:10;2.70;1.00
1181;DHT22;579;52.046;8.532;2022-12-10T02:50:37;2.70;1.00
1181;DHT22;579;52.046;8.532;2022-12-10T02:53:03;2.80;1.00
1181;DHT22;579;52.046;8.532;2022-12-10T02:55:37;2.80;1.00
1181;DHT22;579;52.046;8.532;2022-12-10T02:58:18;2.80;1.00
1181;DHT22;579;52.046;8.532;2022-12-10T03:00:56;2.90;1.00
1181;DHT22;579;52.046;8.532;2022-12-10T03:08:34;3.30;1.00
1181;DHT22;579;52.046;8.532;2022-12-10T03:11:08;2.70;1.00
1181;DHT22;579;52.046;8.532;2022-12-10T03:13:41;2.80;1.00
1181;DHT22;579;52.046;8.532;2022-12-10T03:16:12;2.90;1.00
1181;DHT22;579;52.046;8.532;2022-12-10T03:18:39;2.90;1.00
1181;DHT22;579;52.046;8.532;2022-12-10T03:21:07;3.00;1.00
1181;DHT22;579;52.046;8.532;2022-12-10T03:23:38;2.90;1.00
1181;DHT22;579;52.046;8.532;2022-12-10T03:32:52;3.00;1.00
1181;DHT22;579;52.046;8.532;2022-12-10T03:35:20;2.90;1.00
1181;DHT22;579;52.046;8.532;2022-12-10T03:37:48;2.80;1.00
1181;DHT22;579;52.046;8.532;2022-12-10T03:40:15;3.00;1.00
1181;DHT22;579;52.046;8.532;2022-12-10T03:42:44;2.90;1.00
1181;DHT22;579;52.046;8.532;2022-12-10T03:45:10;3.10;1.00
1181;DHT22;579;52.046;8.532;2022-12-10T03:47:36;3.10;1.00
1181;DHT22;579;52.046;8.532;2022-12-10T03:55:09;3.00;1.00
1181;DHT22;579;52.046;8.532;2022-12-10T03:57:35;2.90;1.00
1181;DHT22;579;52.046;8.532;2022-12-10T04:00:03;2.90;1.00
1181;DHT22;579;52.046;8.532;2022-12-10T04:02:30;2.90;1.00
1181;DHT22;579;52.046;8.532;2022-12-10T04:04:56;3.00;1.00
1181;DHT22;579;52.046;8.532;2022-12-10T04:07:22;3.10;1.00
1181;DHT22;579;52.046;8.532;2022-12-10T04:09:48;3.00;1.00
1181;DHT22;579;52.046;8.532;2022-12-10T04:17:22;3.10;1.00
1181;DHT22;579;52.046;8.532;2022-12-10T04:19:48;3.30;1.00
1181;DHT22;579;52.046;8.532;2022-12-10T04:22:14;3.10;1.00
1181;DHT22;579;52.046;8.532;2022-12-10T04:24:59;3.10;1.00
1181;DHT22;579;52.046;8.532;2022-12-10T04:27:43;3.20;1.00
1181;DHT22;579;52.046;8.532;2022-12-10T04:30:11;3.10;1.00
1181;DHT22;579;52.046;8.532;2022-12-10T04:32:38;3.40;1.00
1181;DHT22;579;52.046;8.532;2022-12-10T04:39:51;3.10;1.00
1181;DHT22;579;52.046;8.532;2022-12-10T04:42:17;3.10;1.00
1181;DHT22;579;52.046;8.532;2022-12-10T04:44:44;3.20;1.00
1181;DHT22;579;52.046;8.532;2022-12-10T04:47:11;3.30;1.00
1181;DHT22;579;52.046;8.532;2022-12-10T04:49:38;3.10;1.00
1181;DHT22;579;52.046;8.532;2022-12-10T04:52:07;3.10;1.00
1181;DHT22;579;52.046;8.532;2022-12-10T04:54:34;3.10;1.00
1181;DHT22;579;52.046;8.532;2022-12-10T04:59:40;3.20;1.00
1181;DHT22;579;52.046;8.532;2022-12-10T05:02:07;3.20;1.00
1181;DHT22;579;52.046;8.532;2022-12-10T05:04:33;3.20;1.00
1181;DHT22;579;52.046;8.532;2022-12-10T05:07:00;3.20;1.00
1181;DHT22;579;52.046;8.532;2022-12-10T05:09:26;3.10;1.00
1181;DHT22;579;52.046;8.532;2022-12-10T05:11:52;3.30;1.00
1181;DHT22;579;52.046;8.532;2022-12-10T05:14:18;3.30;1.00
1181;DHT22;579;52.046;8.532;2022-12-10T05:21:43;3.30;1.00
1181;DHT22;579;52.046;8.532;2022-12-10T05:24:28;3.30;1.00
1181;DHT22;579;52.046;8.532;2022-12-10T05:26:56;3.30;1.00
1181;DHT22;579;52.046;8.532;2022-12-10T05:29:23;3.30;1.00
1181;DHT22;579;52.046;8.532;2022-12-10T05:31:49;3.30;1.00
1181;DHT22;579;52.046;8.532;2022-12-10T05:34:15;3.60;1.00
1181;DHT22;579;52.046;8.532;2022-12-10T05:36:41;3.30;1.00
1181;DHT22;579;52.046;8.532;2022-12-10T05:43:21;3.30;1.00
1181;DHT22;579;52.046;8.532;2022-12-10T05:45:48;3.30;1.00
1181;DHT22;579;52.046;8.532;2022-12-10T05:48:15;3.20;1.00
1181;DHT22;579;52.046;8.532;2022-12-10T05:50:42;3.20;1.00
1181;DHT22;579;52.046;8.532;2022-12-10T05:53:08;3.20;1.00
1181;DHT22;579;52.046;8.532;2022-12-10T05:55:35;3.20;1.00
1181;DHT22;579;52.046;8.532;2022-12-10T05:58:01;3.30;1.00
1181;DHT22;579;52.046;8.532;2022-12-10T06:05:24;3.20;1.00
1181;DHT22;579;52.046;8.532;2022-12-10T06:07:51;3.10;1.00
1181;DHT22;579;52.046;8.532;2022-12-10T06:10:17;3.20;1.00
1181;DHT22;579;52.046;8.532;2022-12-10T06:12:43;3.50;1.00
1181;DHT22;579;52.046;8.532;2022-12-10T06:15:10;3.70;1.00
1181;DHT22;579;52.046;8.532;2022-12-10T06:17:36;3.70;1.00
1181;DHT22;579;52.046;8.532;2022-12-10T06:20:03;3.60;1.00
1181;DHT22;579;52.046;8.532;2022-12-10T06:27:34;3.50;1.00
1181;DHT22;579;52.046;8.532;2022-12-10T06:30:00;3.60;1.00
1181;DHT22;579;52.046;8.532;2022-12-10T06:32:27;3.50;1.00
1181;DHT22;579;52.046;8.532;2022-12-10T06:34:53;3.40;1.00
1181;DHT22;579;52.046;8.532;2022-12-10T06:37:20;3.30;1.00
1181;DHT22;579;52.046;8.532;2022-12-10T06:39:47;3.50;1.00
1181;DHT22;579;52.046;8.532;2022-12-10T06:42:13;3.60;1.00
1181;DHT22;579;52.046;8.532;2022-12-10T06:48:55;3.20;1.00
1181;DHT22;579;52.046;8.532;2022-12-10T06:51:21;3.30;1.00
1181;DHT22;579;52.046;8.532;2022-12-10T06:53:48;3.30;1.00
1181;DHT22;579;52.046;8.532;2022-12-10T06:56:16;3.20;1.00
1181;DHT22;579;52.046;8.532;2022-12-10T06:58:44;3.10;1.00
1181;DHT22;579;52.046;8.532;2022-12-10T07:01:13;3.20;1.00
1181;DHT22;579;52.046;8.532;2022-12-10T07:03:47;3.30;1.00
1181;DHT22;579;52.046;8.532;2022-12-10T07:08:54;4.00;1.00
1181;DHT22;579;52.046;8.532;2022-12-10T07:11:22;3.30;1.00
1181;DHT22;579;52.046;8.532;2022-12-10T07:13:49;3.30;1.00
1181;DHT22;579;52.046;8.532;2022-12-10T07:16:16;3.70;1.00
1181;DHT22;579;52.046;8.532;2022-12-10T07:18:45;3.60;1.00
1181;DHT22;579;52.046;8.532;2022-12-10T07:21:15;3.40;1.00
1181;DHT22;579;52.046;8.532;2022-12-10T07:23:42;3.40;1.00
1181;DHT22;579;52.046;8.532;2022-12-10T07:29:52;3.50;1.00
1181;DHT22;579;52.046;8.532;2022-12-10T07:32:19;3.30;1.00
1181;DHT22;579;52.046;8.532;2022-12-10T07:34:46;3.40;1.00
1181;DHT22;579;52.046;8.532;2022-12-10T07:37:15;3.40;1.00
1181;DHT22;579;52.046;8.532;2022-12-10T07:39:41;3.40;1.00
1181;DHT22;579;52.046;8.532;2022-12-10T07:42:08;3.50;1.00
1181;DHT22;579;52.046;8.532;2022-12-10T07:44:34;3.50;1.00
1181;DHT22;579;52.046;8.532;2022-12-10T07:52:17;3.60;1.00
1181;DHT22;579;52.046;8.532;2022-12-10T07:54:43;3.50;1.00
1181;DHT22;579;52.046;8.532;2022-12-10T07:57:10;3.50;1.00
1181;DHT22;579;52.046;8.532;2022-12-10T07:59:36;3.60;1.00
1181;DHT22;579;52.046;8.532;2022-12-10T08:02:03;3.80;1.00
1181;DHT22;579;52.046;8.532;2022-12-10T08:04:29;3.80;1.00
1181;DHT22;579;52.046;8.532;2022-12-10T08:06:56;3.70;1.00
1181;DHT22;579;52.046;8.532;2022-12-10T08:13:24;3.80;1.00
1181;DHT22;579;52.046;8.532;2022-12-10T08:15:51;3.80;1.00
1181;DHT22;579;52.046;8.532;2022-12-10T08:18:17;4.00;1.00
1181;DHT22;579;52.046;8.532;2022-12-10T08:20:44;4.10;1.00
1181;DHT22;579;52.046;8.532;2022-12-10T08:23:10;4.10;1.00
1181;DHT22;579;52.046;8.532;2022-12-10T08:25:37;4.20;1.00
1181;DHT22;579;52.046;8.532;2022-12-10T08:28:04;4.10;1.00
1181;DHT22;579;52.046;8.532;2022-12-10T08:33:14;4.00;1.00
1181;DHT22;579;52.046;8.532;2022-12-10T08:35:47;3.90;1.00
1181;DHT22;579;52.046;8.532;2022-12-10T08:38:13;3.80;1.00
1181;DHT22;579;52.046;8.532;2022-12-10T08:40:41;4.10;1.00
1181;DHT22;579;52.046;8.532;2022-12-10T08:43:09;4.00;1.00
1181;DHT22;579;52.046;8.532;2022-12-10T08:45:40;4.00;1.00
1181;DHT22;579;52.046;8.532;2022-12-10T08:51:54;4.10;1.00
1181;DHT22;579;52.046;8.532;2022-12-10T08:54:21;4.10;1.00
1181;DHT22;579;52.046;8.532;2022-12-10T08:56:47;4.30;1.00
1181;DHT22;579;52.046;8.532;2022-12-10T08:59:16;4.20;1.00
1181;DHT22;579;52.046;8.532;2022-12-10T09:01:43;4.20;1.00
1181;DHT22;579;52.046;8.532;2022-12-10T09:04:09;4.40;1.00
1181;DHT22;579;52.046;8.532;2022-12-10T09:06:38;4.40;1.00
1181;DHT22;579;52.046;8.532;2022-12-10T09:11:43;4.30;1.00
1181;DHT22;579;52.046;8.532;2022-12-10T09:14:11;4.30;1.00
1181;DHT22;579;52.046;8.532;2022-12-10T09:16:38;4.30;1.00
1181;DHT22;579;52.046;8.532;2022-12-10T09:19:05;4.30;1.00
1181;DHT22;579;52.046;8.532;2022-12-10T09:21:32;4.30;1.00
1181;DHT22;579;52.046;8.532;2022-12-10T09:23:59;4.30;1.00
1181;DHT22;579;52.046;8.532;2022-12-10T09:26:26;4.40;1.00
1181;DHT22;579;52.046;8.532;2022-12-10T09:33:23;4.50;1.00
1181;DHT22;579;52.046;8.532;2022-12-10T09:35:50;4.50;1.00
1181;DHT22;579;52.046;8.532;2022-12-10T09:38:16;4.50;1.00
1181;DHT22;579;52.046;8.532;2022-12-10T09:40:46;4.60;1.00
1181;DHT22;579;52.046;8.532;2022-12-10T09:43:21;4.60;1.00
1181;DHT22;579;52.046;8.532;2022-12-10T09:45:58;4.70;1.00
1181;DHT22;579;52.046;8.532;2022-12-10T09:48:35;4.60;1.00
1181;DHT22;579;52.046;8.532;2022-12-10T09:55:58;4.70;1.00
1181;DHT22;579;52.046;8.532;2022-12-10T09:58:26;4.80;1.00
1181;DHT22;579;52.046;8.532;2022-12-10T10:00:57;5.10;1.00
1181;DHT22;579;52.046;8.532;2022-12-10T10:03:25;4.80;1.00
1181;DHT22;579;52.046;8.532;2022-12-10T10:05:53;4.80;1.00
1181;DHT22;579;52.046;8.532;2022-12-10T10:08:28;4.90;1.00
1181;DHT22;579;52.046;8.532;2022-12-10T10:11:11;5.00;1.00
1181;DHT22;579;52.046;8.532;2022-12-10T10:18:46;5.00;1.00
1181;DHT22;579;52.046;8.532;2022-12-10T10:21:21;4.70;1.00
1181;DHT22;579;52.046;8.532;2022-12-10T10:23:49;4.60;1.00
1181;DHT22;579;52.046;8.532;2022-12-10T10:26:15;4.70;1.00
1181;DHT22;579;52.046;8.532;2022-12-10T10:28:43;4.70;1.00
1181;DHT22;579;52.046;8.532;2022-12-10T10:31:17;4.70;1.00
1181;DHT22;579;52.046;8.532;2022-12-10T10:33:52;4.90;1.00
1181;DHT22;579;52.046;8.532;2022-12-10T10:40:25;4.80;1.00
1181;DHT22;579;52.046;8.532;2022-12-10T10:42:57;4.90;1.00
1181;DHT22;579;52.046;8.532;2022-12-10T10:45:37;4.70;1.00
1181;DHT22;579;52.046;8.532;2022-12-10T10:48:13;4.80;1.00
1181;DHT22;579;52.046;8.532;2022-12-10T10:50:42;4.80;1.00
1181;DHT22;579;52.046;8.532;2022-12-10T10:53:40;5.10;1.00
1181;DHT22;579;52.046;8.532;2022-12-10T11:01:13;5.00;1.00
1181;DHT22;579;52.046;8.532;2022-12-10T11:03:57;5.00;1.00
1181;DHT22;579;52.046;8.532;2022-12-10T11:06:24;4.90;1.00
1181;DHT22;579;52.046;8.532;2022-12-10T11:08:55;5.10;1.00
1181;DHT22;579;52.046;8.532;2022-12-10T11:11:32;5.10;1.00
1181;DHT22;579;52.046;8.532;2022-12-10T11:14:14;5.10;1.00
1181;DHT22;579;52.046;8.532;2022-12-10T11:19:27;5.20;1.00
1181;DHT22;579;52.046;8.532;2022-12-10T11:21:53;5.40;1.00
1181;DHT22;579;52.046;8.532;2022-12-10T11:24:20;5.20;1.00
1181;DHT22;579;52.046;8.532;2022-12-10T11:26:56;5.20;1.00
1181;DHT22;579;52.046;8.532;2022-12-10T11:29:49;5.20;1.00
1181;DHT22;579;52.046;8.532;2022-12-10T11:32:35;5.40;1.00
1181;DHT22;579;52.046;8.532;2022-12-10T11:35:13;5.40;1.00
1181;DHT22;579;52.046;8.532;2022-12-10T11:41:27;5.50;1.00
1181;DHT22;579;52.046;8.532;2022-12-10T11:44:13;5.40;1.00
1181;DHT22;579;52.046;8.532;2022-12-10T11:47:01;5.50;1.00
1181;DHT22;579;52.046;8.532;2022-12-10T11:49:59;5.50;1.00
1181;DHT22;579;52.046;8.532;2022-12-10T11:52:44;5.50;1.00
1181;DHT22;579;52.046;8.532;2022-12-10T11:55:29;5.30;1.00
1181;DHT22;579;52.046;8.532;2022-12-10T12:05:40;5.30;1.00
1181;DHT22;579;52.046;8.532;2022-12-10T12:08:23;5.50;1.00
1181;DHT22;579;52.046;8.532;2022-12-10T12:10:58;5.30;1.00
1181;DHT22;579;52.046;8.532;2022-12-10T12:13:34;5.10;1.00
1181;DHT22;579;52.046;8.532;2022-12-10T12:16:05;5.20;1.00
1181;DHT22;579;52.046;8.532;2022-12-10T12:22:14;5.50;1.00
1181;DHT22;579;52.046;8.532;2022-12-10T12:24:49;5.90;1.00
1181;DHT22;579;52.046;8.532;2022-12-10T12:27:23;5.80;1.00
1181;DHT22;579;52.046;8.532;2022-12-10T12:30:00;5.50;1.00
1181;DHT22;579;52.046;8.532;2022-12-10T12:32:43;5.30;1.00
1181;DHT22;579;52.046;8.532;2022-12-10T12:35:16;5.60;1.00
1181;DHT22;579;52.046;8.532;2022-12-10T12:42:56;5.20;1.00
1181;DHT22;579;52.046;8.532;2022-12-10T12:45:32;5.30;1.00
1181;DHT22;579;52.046;8.532;2022-12-10T12:48:09;5.40;1.00
1181;DHT22;579;52.046;8.532;2022-12-10T12:50:43;5.60;1.00
1181;DHT22;579;52.046;8.532;2022-12-10T12:53:14;5.40;1.00
1181;DHT22;579;52.046;8.532;2022-12-10T12:55:50;5.40;1.00
1181;DHT22;579;52.046;8.532;2022-12-10T13:01:10;5.40;1.00
1181;DHT22;579;52.046;8.532;2022-12-10T13:03:43;5.60;1.00
1181;DHT22;579;52.046;8.532;2022-12-10T13:06:20;5.60;1.00
1181;DHT22;579;52.046;8.532;2022-12-10T13:08:52;5.20;1.00
1181;DHT22;579;52.046;8.532;2022-12-10T13:11:37;5.00;1.00
1181;DHT22;579;52.046;8.532;2022-12-10T13:17:32;5.00;1.00
1181;DHT22;579;52.046;8.532;2022-12-10T13:20:33;5.00;1.00
1181;DHT22;579;52.046;8.532;2022-12-10T13:23:02;5.00;1.00
1181;DHT22;579;52.046;8.532;2022-12-10T13:25:39;5.30;1.00
1181;DHT22;579;52.046;8.532;2022-12-10T13:28:22;5.10;1.00
1181;DHT22;579;52.046;8.532;2022-12-10T13:31:19;5.00;1.00
1181;DHT22;579;52.046;8.532;2022-12-10T13:41:24;5.50;1.00
1181;DHT22;579;52.046;8.532;2022-12-10T13:44:32;5.20;1.00
1181;DHT22;579;52.046;8.532;2022-12-10T13:47:05;5.10;1.00
1181;DHT22;579;52.046;8.532;2022-12-10T13:49:53;5.00;1.00
1181;DHT22;579;52.046;8.532;2022-12-10T13:52:25;5.10;1.00
1181;DHT22;579;52.046;8.532;2022-12-10T13:55:07;5.30;1.00
1181;DHT22;579;52.046;8.532;2022-12-10T14:02:12;5.20;1.00
1181;DHT22;579;52.046;8.532;2022-12-10T14:05:14;5.10;1.00
1181;DHT22;579;52.046;8.532;2022-12-10T14:08:02;5.00;1.00
1181;DHT22;579;52.046;8.532;2022-12-10T14:10:35;5.00;1.00
1181;DHT22;579;52.046;8.532;2022-12-10T14:13:04;5.00;1.00
1181;DHT22;579;52.046;8.532;2022-12-10T14:15:35;4.90;1.00
1181;DHT22;579;52.046;8.532;2022-12-10T14:20:53;5.00;1.00
1181;DHT22;579;52.046;8.532;2022-12-10T14:23:24;4.80;1.00
1181;DHT22;579;52.046;8.532;2022-12-10T14:26:11;5.10;1.00
1181;DHT22;579;52.046;8.532;2022-12-10T14:28:41;4.80;1.00
1181;DHT22;579;52.046;8.532;2022-12-10T14:31:13;5.00;1.00
1181;DHT22;579;52.046;8.532;2022-12-10T14:33:53;5.00;1.00
1181;DHT22;579;52.046;8.532;2022-12-10T14:39:25;4.90;1.00
1181;DHT22;579;52.046;8.532;2022-12-10T14:41:58;4.90;1.00
1181;DHT22;579;52.046;8.532;2022-12-10T14:44:27;5.10;1.00
1181;DHT22;579;52.046;8.532;2022-12-10T14:47:10;5.40;1.00
1181;DHT22;579;52.046;8.532;2022-12-10T14:49:41;5.50;1.00
1181;DHT22;579;52.046;8.532;2022-12-10T14:52:14;5.40;1.00
1181;DHT22;579;52.046;8.532;2022-12-10T14:54:43;4.90;1.00
1181;DHT22;579;52.046;8.532;2022-12-10T14:59:50;4.90;1.00
1181;DHT22;579;52.046;8.532;2022-12-10T15:02:28;5.00;1.00
1181;DHT22;579;52.046;8.532;2022-12-10T15:04:57;5.00;1.00
1181;DHT22;579;52.046;8.532;2022-12-10T15:07:26;5.20;1.00
1181;DHT22;579;52.046;8.532;2022-12-10T15:10:00;4.80;1.00
1181;DHT22;579;52.046;8.532;2022-12-10T15:12:32;4.50;1.00
1181;DHT22;579;52.046;8.532;2022-12-10T15:15:09;4.20;1.00
1181;DHT22;579;52.046;8.532;2022-12-10T15:22:00;4.50;1.00
1181;DHT22;579;52.046;8.532;2022-12-10T15:24:36;4.50;1.00
1181;DHT22;579;52.046;8.532;2022-12-10T15:27:15;4.50;1.00
1181;DHT22;579;52.046;8.532;2022-12-10T15:29:43;4.60;1.00
1181;DHT22;579;52.046;8.532;2022-12-10T15:32:14;4.50;1.00
1181;DHT22;579;52.046;8.532;2022-12-10T15:34:49;4.50;1.00
1181;DHT22;579;52.046;8.532;2022-12-10T15:37:23;4.40;1.00
1181;DHT22;579;52.046;8.532;2022-12-10T15:44:58;4.50;1.00
1181;DHT22;579;52.046;8.532;2022-12-10T15:47:27;4.80;1.00
1181;DHT22;579;52.046;8.532;2022-12-10T15:49:55;4.80;1.00
1181;DHT22;579;52.046;8.532;2022-12-10T15:52:26;5.10;1.00
1181;DHT22;579;52.046;8.532;2022-12-10T15:54:56;4.70;1.00
1181;DHT22;579;52.046;8.532;2022-12-10T15:57:30;4.90;1.00
1181;DHT22;579;52.046;8.532;2022-12-10T16:00:00;4.60;1.00
1181;DHT22;579;52.046;8.532;2022-12-10T16:05:12;4.60;1.00
1181;DHT22;579;52.046;8.532;2022-12-10T16:07:41;4.70;1.00
1181;DHT22;579;52.046;8.532;2022-12-10T16:10:28;4.90;1.00
1181;DHT22;579;52.046;8.532;2022-12-10T16:12:59;4.50;1.00
1181;DHT22;579;52.046;8.532;2022-12-10T16:15:28;4.40;1.00
1181;DHT22;579;52.046;8.532;2022-12-10T16:17:56;4.60;1.00
1181;DHT22;579;52.046;8.532;2022-12-10T16:23:03;4.70;1.00
1181;DHT22;579;52.046;8.532;2022-12-10T16:25:32;4.80;1.00
1181;DHT22;579;52.046;8.532;2022-12-10T16:28:09;4.60;1.00
1181;DHT22;579;52.046;8.532;2022-12-10T16:30:42;4.90;1.00
1181;DHT22;579;52.046;8.532;2022-12-10T16:33:14;4.50;1.00
1181;DHT22;579;52.046;8.532;2022-12-10T16:35:46;4.80;1.00
1181;DHT22;579;52.046;8.532;2022-12-10T16:40:54;4.80;1.00
1181;DHT22;579;52.046;8.532;2022-12-10T16:43:26;4.50;1.00
1181;DHT22;579;52.046;8.532;2022-12-10T16:45:54;4.50;1.00
1181;DHT22;579;52.046;8.532;2022-12-10T16:48:21;4.50;1.00
1181;DHT22;579;52.046;8.532;2022-12-10T16:50:50;4.70;1.00
1181;DHT22;579;52.046;8.532;2022-12-10T16:53:20;5.00;1.00
1181;DHT22;579;52.046;8.532;2022-12-10T16:55:49;5.10;1.00
1181;DHT22;579;52.046;8.532;2022-12-10T17:00:54;5.10;1.00
1181;DHT22;579;52.046;8.532;2022-12-10T17:03:25;4.10;1.00
1181;DHT22;579;52.046;8.532;2022-12-10T17:05:55;4.50;1.00
1181;DHT22;579;52.046;8.532;2022-12-10T17:08:24;4.60;1.00
1181;DHT22;579;52.046;8.532;2022-12-10T17:10:52;4.90;1.00
1181;DHT22;579;52.046;8.532;2022-12-10T17:13:38;4.60;1.00
1181;DHT22;579;52.046;8.532;2022-12-10T17:16:10;4.50;1.00
1181;DHT22;579;52.046;8.532;2022-12-10T17:21:57;4.60;1.00
1181;DHT22;579;52.046;8.532;2022-12-10T17:24:29;4.70;1.00
1181;DHT22;579;52.046;8.532;2022-12-10T17:26:59;4.40;1.00
1181;DHT22;579;52.046;8.532;2022-12-10T17:29:30;4.30;1.00
1181;DHT22;579;52.046;8.532;2022-12-10T17:32:00;4.20;1.00
1181;DHT22;579;52.046;8.532;2022-12-10T17:34:30;4.40;1.00
1181;DHT22;579;52.046;8.532;2022-12-10T17:36:58;4.00;1.00
1181;DHT22;579;52.046;8.532;2022-12-10T17:39:53;3.50;1.00
1181;DHT22;579;52.046;8.532;2022-12-10T17:42:19;3.40;1.00
1181;DHT22;579;52.046;8.532;2022-12-10T17:44:46;3.70;1.00
1181;DHT22;579;52.046;8.532;2022-12-10T17:47:16;3.60;1.00
1181;DHT22;579;52.046;8.532;2022-12-10T17:49:46;3.40;1.00
1181;DHT22;579;52.046;8.532;2022-12-10T17:52:13;3.50;1.00
1181;DHT22;579;52.046;8.532;2022-12-10T17:54:39;4.20;1.00
1181;DHT22;579;52.046;8.532;2022-12-10T17:59:46;4.20;1.00
1181;DHT22;579;52.046;8.532;2022-12-10T18:02:13;4.10;1.00
1181;DHT22;579;52.046;8.532;2022-12-10T18:04:40;4.10;1.00
1181;DHT22;579;52.046;8.532;2022-12-10T18:07:10;4.60;1.00
1181;DHT22;579;52.046;8.532;2022-12-10T18:09:39;4.50;1.00
1181;DHT22;579;52.046;8.532;2022-12-10T18:12:08;4.70;1.00
1181;DHT22;579;52.046;8.532;2022-12-10T18:17:21;3.70;1.00
1181;DHT22;579;52.046;8.532;2022-12-10T18:19:47;3.40;1.00
1181;DHT22;579;52.046;8.532;2022-12-10T18:22:14;3.50;1.00
1181;DHT22;579;52.046;8.532;2022-12-10T18:24:43;3.40;1.00
1181;DHT22;579;52.046;8.532;2022-12-10T18:27:16;3.30;1.00
1181;DHT22;579;52.046;8.532;2022-12-10T18:29:44;3.40;1.00
1181;DHT22;579;52.046;8.532;2022-12-10T18:35:05;3.80;1.00
1181;DHT22;579;52.046;8.532;2022-12-10T18:37:32;4.10;1.00
1181;DHT22;579;52.046;8.532;2022-12-10T18:39:59;4.20;1.00
1181;DHT22;579;52.046;8.532;2022-12-10T18:42:25;4.00;1.00
1181;DHT22;579;52.046;8.532;2022-12-10T18:44:56;4.00;1.00
1181;DHT22;579;52.046;8.532;2022-12-10T18:47:25;3.60;1.00
1181;DHT22;579;52.046;8.532;2022-12-10T18:49:53;3.40;1.00
1181;DHT22;579;52.046;8.532;2022-12-10T18:56:00;4.10;1.00
1181;DHT22;579;52.046;8.532;2022-12-10T18:58:26;4.00;1.00
1181;DHT22;579;52.046;8.532;2022-12-10T19:00:53;4.10;1.00
1181;DHT22;579;52.046;8.532;2022-12-10T19:03:19;4.10;1.00
1181;DHT22;579;52.046;8.532;2022-12-10T19:05:45;3.40;1.00
1181;DHT22;579;52.046;8.532;2022-12-10T19:08:12;3.30;1.00
1181;DHT22;579;52.046;8.532;2022-12-10T19:10:42;3.50;1.00
1181;DHT22;579;52.046;8.532;2022-12-10T19:15:49;3.40;1.00
1181;DHT22;579;52.046;8.532;2022-12-10T19:18:17;3.90;1.00
1181;DHT22;579;52.046;8.532;2022-12-10T19:20:44;4.10;1.00
1181;DHT22;579;52.046;8.532;2022-12-10T19:23:10;3.50;1.00
1181;DHT22;579;52.046;8.532;2022-12-10T19:25:38;3.60;1.00
1181;DHT22;579;52.046;8.532;2022-12-10T19:28:05;3.90;1.00
1181;DHT22;579;52.046;8.532;2022-12-10T19:30:31;3.70;1.00
1181;DHT22;579;52.046;8.532;2022-12-10T19:35:39;3.90;1.00
1181;DHT22;579;52.046;8.532;2022-12-10T19:38:05;3.70;1.00
1181;DHT22;579;52.046;8.532;2022-12-10T19:40:34;3.50;1.00
1181;DHT22;579;52.046;8.532;2022-12-10T19:43:01;3.40;1.00
1181;DHT22;579;52.046;8.532;2022-12-10T19:45:28;2.90;1.00
1181;DHT22;579;52.046;8.532;2022-12-10T19:47:55;3.00;1.00
1181;DHT22;579;52.046;8.532;2022-12-10T19:50:24;2.70;1.00
1181;DHT22;579;52.046;8.532;2022-12-10T19:57:56;3.40;1.00
1181;DHT22;579;52.046;8.532;2022-12-10T20:00:24;3.50;1.00
1181;DHT22;579;52.046;8.532;2022-12-10T20:02:52;3.60;1.00
1181;DHT22;579;52.046;8.532;2022-12-10T20:05:18;3.40;1.00
1181;DHT22;579;52.046;8.532;2022-12-10T20:07:45;3.40;1.00
1181;DHT22;579;52.046;8.532;2022-12-10T20:10:18;3.50;1.00
1181;DHT22;579;52.046;8.532;2022-12-10T20:12:50;4.00;1.00
1181;DHT22;579;52.046;8.532;2022-12-10T20:20:22;3.70;1.00
1181;DHT22;579;52.046;8.532;2022-12-10T20:22:51;3.30;1.00
1181;DHT22;579;52.046;8.532;2022-12-10T20:25:19;3.30;1.00
1181;DHT22;579;52.046;8.532;2022-12-10T20:27:48;3.40;1.00
1181;DHT22;579;52.046;8.532;2022-12-10T20:30:26;3.50;1.00
1181;DHT22;579;52.046;8.532;2022-12-10T20:32:53;3.60;1.00
1181;DHT22;579;52.046;8.532;2022-12-10T20:35:24;4.20;1.00
1181;DHT22;579;52.046;8.532;2022-12-10T20:41:27;4.50;1.00
1181;DHT22;579;52.046;8.532;2022-12-10T20:43:53;4.50;1.00
1181;DHT22;579;52.046;8.532;2022-12-10T20:46:23;4.60;1.00
1181;DHT22;579;52.046;8.532;2022-12-10T20:48:50;4.50;1.00
1181;DHT22;579;52.046;8.532;2022-12-10T20:51:17;4.30;1.00
1181;DHT22;579;52.046;8.532;2022-12-10T20:53:44;3.90;1.00
1181;DHT22;579;52.046;8.532;2022-12-10T20:56:12;3.80;1.00
1181;DHT22;579;52.046;8.532;2022-12-10T21:01:19;4.40;1.00
1181;DHT22;579;52.046;8.532;2022-12-10T21:03:46;4.20;1.00
1181;DHT22;579;52.046;8.532;2022-12-10T21:06:15;4.00;1.00
1181;DHT22;579;52.046;8.532;2022-12-10T21:08:44;4.00;1.00
1181;DHT22;579;52.046;8.532;2022-12-10T21:11:11;4.00;1.00
1181;DHT22;579;52.046;8.532;2022-12-10T21:13:39;4.00;1.00
1181;DHT22;579;52.046;8.532;2022-12-10T21:16:06;3.40;1.00
1181;DHT22;579;52.046;8.532;2022-12-10T21:21:13;3.50;1.00
1181;DHT22;579;52.046;8.532;2022-12-10T21:23:40;3.30;1.00